sensor_id;sensor_type;location;lat;lon;timestamp;P1;durP1;ratioP1;P2;durP2;ratioP2
34960;SDS011;30789;52.030;7.110;2023-03-29T00:01:29;11.20;;;5.93;;
34960;SDS011;30789;52.030;7.110;2023-03-29T00:03:56;10.68;;;5.80;;
34960;SDS011;30789;52.030;7.110;2023-03-29T00:06:24;11.98;;;6.45;;
34960;SDS011;30789;52.030;7.110;2023-03-29T00:11:26;8.68;;;4.93;;
34960;SDS011;30789;52.030;7.110;2023-03-29T00:13:52;9.30;;;6.45;;
34960;SDS011;30789;52.030;7.110;2023-03-29T00:16:19;9.60;;;6.10;;
34960;SDS011;30789;52.030;7.110;2023-03-29T00:18:45;7.43;;;5.47;;
34960;SDS011;30789;52.030;7.110;2023-03-29T00:21:13;8.90;;;5.75;;
34960;SDS011;30789;52.030;7.110;2023-03-29T00:23:39;7.45;;;5.30;;
34960;SDS011;30789;52.030;7.110;2023-03-29T00:26:06;11.45;;;6.22;;
34960;SDS011;30789;52.030;7.110;2023-03-29T00:28:32;10.70;;;5.97;;
34960;SDS011;30789;52.030;7.110;2023-03-29T00:31:05;9.55;;;5.13;;
34960;SDS011;30789;52.030;7.110;2023-03-29T00:33:32;8.60;;;5.63;;
34960;SDS011;30789;52.030;7.110;2023-03-29T00:35:58;8.65;;;5.75;;
34960;SDS011;30789;52.030;7.110;2023-03-29T00:38:27;8.30;;;5.60;;
34960;SDS011;30789;52.030;7.110;2023-03-29T00:40:53;8.57;;;5.00;;
34960;SDS011;30789;52.030;7.110;2023-03-29T00:43:19;7.50;;;5.55;;
34960;SDS011;30789;52.030;7.110;2023-03-29T00:45:45;13.45;;;5.40;;
34960;SDS011;30789;52.030;7.110;2023-03-29T00:48:12;9.38;;;4.72;;
34960;SDS011;30789;52.030;7.110;2023-03-29T00:50:41;8.68;;;5.22;;
34960;SDS011;30789;52.030;7.110;2023-03-29T00:53:08;8.68;;;4.82;;
34960;SDS011;30789;52.030;7.110;2023-03-29T00:55:38;9.65;;;5.40;;
34960;SDS011;30789;52.030;7.110;2023-03-29T00:58:06;8.23;;;5.30;;
34960;SDS011;30789;52.030;7.110;2023-03-29T01:00:34;6.85;;;4.60;;
34960;SDS011;30789;52.030;7.110;2023-03-29T01:03:03;7.25;;;4.38;;
34960;SDS011;30789;52.030;7.110;2023-03-29T01:05:33;8.40;;;4.72;;
34960;SDS011;30789;52.030;7.110;2023-03-29T01:08:02;8.80;;;4.65;;
34960;SDS011;30789;52.030;7.110;2023-03-29T01:10:30;6.38;;;4.53;;
34960;SDS011;30789;52.030;7.110;2023-03-29T01:13:00;13.10;;;4.03;;
34960;SDS011;30789;52.030;7.110;2023-03-29T01:15:27;7.03;;;4.25;;
34960;SDS011;30789;52.030;7.110;2023-03-29T01:17:54;8.50;;;4.85;;
34960;SDS011;30789;52.030;7.110;2023-03-29T01:20:22;8.35;;;4.32;;
34960;SDS011;30789;52.030;7.110;2023-03-29T01:22:57;7.53;;;4.68;;
34960;SDS011;30789;52.030;7.110;2023-03-29T01:25:29;7.55;;;4.55;;
34960;SDS011;30789;52.030;7.110;2023-03-29T01:27:59;7.53;;;5.03;;
34960;SDS011;30789;52.030;7.110;2023-03-29T01:30:28;8.88;;;5.05;;
34960;SDS011;30789;52.030;7.110;2023-03-29T01:32:56;8.93;;;4.22;;
34960;SDS011;30789;52.030;7.110;2023-03-29T01:35:26;7.82;;;4.88;;
34960;SDS011;30789;52.030;7.110;2023-03-29T01:37:57;6.47;;;4.57;;
34960;SDS011;30789;52.030;7.110;2023-03-29T01:40:26;6.97;;;3.92;;
34960;SDS011;30789;52.030;7.110;2023-03-29T01:42:53;7.70;;;4.25;;
34960;SDS011;30789;52.030;7.110;2023-03-29T01:45:23;8.40;;;4.20;;
34960;SDS011;30789;52.030;7.110;2023-03-29T01:47:52;7.43;;;4.38;;
34960;SDS011;30789;52.030;7.110;2023-03-29T01:50:21;6.10;;;3.90;;
34960;SDS011;30789;52.030;7.110;2023-03-29T01:52:50;5.90;;;4.47;;
34960;SDS011;30789;52.030;7.110;2023-03-29T01:55:21;8.95;;;4.38;;
34960;SDS011;30789;52.030;7.110;2023-03-29T01:57:48;4.75;;;4.22;;
34960;SDS011;30789;52.030;7.110;2023-03-29T02:00:17;9.07;;;4.25;;
34960;SDS011;30789;52.030;7.110;2023-03-29T02:02:46;7.18;;;4.57;;
34960;SDS011;30789;52.030;7.110;2023-03-29T02:05:14;9.00;;;4.38;;
34960;SDS011;30789;52.030;7.110;2023-03-29T02:07:41;5.70;;;3.70;;
34960;SDS011;30789;52.030;7.110;2023-03-29T02:10:08;5.85;;;3.78;;
34960;SDS011;30789;52.030;7.110;2023-03-29T02:12:35;7.03;;;4.40;;
34960;SDS011;30789;52.030;7.110;2023-03-29T02:15:02;6.80;;;4.35;;
34960;SDS011;30789;52.030;7.110;2023-03-29T02:17:31;6.18;;;4.03;;
34960;SDS011;30789;52.030;7.110;2023-03-29T02:19:59;4.72;;;3.80;;
34960;SDS011;30789;52.030;7.110;2023-03-29T02:22:28;6.40;;;3.92;;
34960;SDS011;30789;52.030;7.110;2023-03-29T02:24:56;7.13;;;4.25;;
34960;SDS011;30789;52.030;7.110;2023-03-29T02:27:24;7.18;;;4.03;;
34960;SDS011;30789;52.030;7.110;2023-03-29T02:29:51;9.73;;;4.30;;
34960;SDS011;30789;52.030;7.110;2023-03-29T02:32:19;8.15;;;4.18;;
34960;SDS011;30789;52.030;7.110;2023-03-29T02:34:47;5.40;;;4.20;;
34960;SDS011;30789;52.030;7.110;2023-03-29T02:37:17;6.05;;;4.20;;
34960;SDS011;30789;52.030;7.110;2023-03-29T02:39:44;6.20;;;4.15;;
34960;SDS011;30789;52.030;7.110;2023-03-29T02:42:13;10.95;;;4.50;;
34960;SDS011;30789;52.030;7.110;2023-03-29T02:44:41;7.22;;;4.15;;
34960;SDS011;30789;52.030;7.110;2023-03-29T02:47:10;6.88;;;4.35;;
34960;SDS011;30789;52.030;7.110;2023-03-29T02:49:38;7.93;;;4.65;;
34960;SDS011;30789;52.030;7.110;2023-03-29T02:52:05;6.55;;;4.35;;
34960;SDS011;30789;52.030;7.110;2023-03-29T02:54:35;6.10;;;4.63;;
34960;SDS011;30789;52.030;7.110;2023-03-29T02:57:07;6.97;;;3.90;;
34960;SDS011;30789;52.030;7.110;2023-03-29T02:59:34;6.70;;;4.63;;
34960;SDS011;30789;52.030;7.110;2023-03-29T03:02:02;6.70;;;4.40;;
34960;SDS011;30789;52.030;7.110;2023-03-29T03:04:29;6.32;;;4.07;;
34960;SDS011;30789;52.030;7.110;2023-03-29T03:06:55;8.60;;;4.57;;
34960;SDS011;30789;52.030;7.110;2023-03-29T03:09:21;7.10;;;4.85;;
34960;SDS011;30789;52.030;7.110;2023-03-29T03:11:49;7.60;;;4.32;;
34960;SDS011;30789;52.030;7.110;2023-03-29T03:14:16;7.45;;;4.35;;
34960;SDS011;30789;52.030;7.110;2023-03-29T03:16:46;9.10;;;4.45;;
34960;SDS011;30789;52.030;7.110;2023-03-29T03:19:13;9.18;;;4.03;;
34960;SDS011;30789;52.030;7.110;2023-03-29T03:21:39;6.95;;;4.78;;
34960;SDS011;30789;52.030;7.110;2023-03-29T03:24:05;8.68;;;5.22;;
34960;SDS011;30789;52.030;7.110;2023-03-29T03:26:32;7.22;;;4.78;;
34960;SDS011;30789;52.030;7.110;2023-03-29T03:29:01;6.70;;;4.07;;
34960;SDS011;30789;52.030;7.110;2023-03-29T03:31:27;9.88;;;4.65;;
34960;SDS011;30789;52.030;7.110;2023-03-29T03:33:53;5.70;;;4.30;;
34960;SDS011;30789;52.030;7.110;2023-03-29T03:36:20;7.00;;;4.30;;
34960;SDS011;30789;52.030;7.110;2023-03-29T03:38:50;8.32;;;4.47;;
34960;SDS011;30789;52.030;7.110;2023-03-29T03:41:17;8.10;;;5.07;;
34960;SDS011;30789;52.030;7.110;2023-03-29T03:43:43;9.23;;;4.13;;
34960;SDS011;30789;52.030;7.110;2023-03-29T03:46:14;5.70;;;3.90;;
34960;SDS011;30789;52.030;7.110;2023-03-29T03:48:40;7.32;;;4.43;;
34960;SDS011;30789;52.030;7.110;2023-03-29T03:51:06;6.47;;;4.43;;
34960;SDS011;30789;52.030;7.110;2023-03-29T03:53:33;5.78;;;4.18;;
34960;SDS011;30789;52.030;7.110;2023-03-29T03:55:59;6.78;;;4.80;;
34960;SDS011;30789;52.030;7.110;2023-03-29T03:58:26;6.95;;;3.95;;
34960;SDS011;30789;52.030;7.110;2023-03-29T04:00:53;5.82;;;4.15;;
34960;SDS011;30789;52.030;7.110;2023-03-29T04:03:21;7.20;;;4.05;;
34960;SDS011;30789;52.030;7.110;2023-03-29T04:05:47;7.20;;;4.55;;
34960;SDS011;30789;52.030;7.110;2023-03-29T04:08:14;6.03;;;4.35;;
34960;SDS011;30789;52.030;7.110;2023-03-29T04:10:40;7.22;;;4.20;;
34960;SDS011;30789;52.030;7.110;2023-03-29T04:13:07;7.00;;;3.92;;
34960;SDS011;30789;52.030;7.110;2023-03-29T04:15:34;8.77;;;4.35;;
34960;SDS011;30789;52.030;7.110;2023-03-29T04:18:02;5.68;;;4.32;;
34960;SDS011;30789;52.030;7.110;2023-03-29T04:20:30;7.55;;;3.83;;
34960;SDS011;30789;52.030;7.110;2023-03-29T04:22:56;6.97;;;4.28;;
34960;SDS011;30789;52.030;7.110;2023-03-29T04:25:22;5.63;;;4.40;;
34960;SDS011;30789;52.030;7.110;2023-03-29T04:27:49;5.63;;;3.92;;
34960;SDS011;30789;52.030;7.110;2023-03-29T04:30:15;5.13;;;4.00;;
34960;SDS011;30789;52.030;7.110;2023-03-29T04:32:42;7.60;;;4.05;;
34960;SDS011;30789;52.030;7.110;2023-03-29T04:35:08;4.78;;;3.78;;
34960;SDS011;30789;52.030;7.110;2023-03-29T04:37:36;4.38;;;3.92;;
34960;SDS011;30789;52.030;7.110;2023-03-29T04:40:05;6.93;;;4.18;;
34960;SDS011;30789;52.030;7.110;2023-03-29T04:42:33;7.13;;;4.85;;
34960;SDS011;30789;52.030;7.110;2023-03-29T04:44:59;8.98;;;5.00;;
34960;SDS011;30789;52.030;7.110;2023-03-29T04:47:25;8.45;;;5.63;;
34960;SDS011;30789;52.030;7.110;2023-03-29T04:49:53;8.20;;;4.97;;
34960;SDS011;30789;52.030;7.110;2023-03-29T04:52:20;9.45;;;5.10;;
34960;SDS011;30789;52.030;7.110;2023-03-29T04:54:47;7.35;;;4.97;;
34960;SDS011;30789;52.030;7.110;2023-03-29T04:57:13;8.02;;;5.28;;
34960;SDS011;30789;52.030;7.110;2023-03-29T04:59:41;9.95;;;4.85;;
34960;SDS011;30789;52.030;7.110;2023-03-29T05:02:07;8.52;;;5.40;;
34960;SDS011;30789;52.030;7.110;2023-03-29T05:04:33;10.13;;;5.28;;
34960;SDS011;30789;52.030;7.110;2023-03-29T05:07:00;8.02;;;5.13;;
34960;SDS011;30789;52.030;7.110;2023-03-29T05:09:27;10.15;;;6.15;;
34960;SDS011;30789;52.030;7.110;2023-03-29T05:11:54;8.70;;;4.95;;
34960;SDS011;30789;52.030;7.110;2023-03-29T05:14:21;8.45;;;5.65;;
34960;SDS011;30789;52.030;7.110;2023-03-29T05:16:47;10.20;;;5.97;;
34960;SDS011;30789;52.030;7.110;2023-03-29T05:19:13;11.35;;;6.28;;
34960;SDS011;30789;52.030;7.110;2023-03-29T05:21:40;12.60;;;7.05;;
34960;SDS011;30789;52.030;7.110;2023-03-29T05:24:07;10.95;;;5.90;;
34960;SDS011;30789;52.030;7.110;2023-03-29T05:26:33;13.88;;;6.18;;
34960;SDS011;30789;52.030;7.110;2023-03-29T05:29:01;9.23;;;6.07;;
34960;SDS011;30789;52.030;7.110;2023-03-29T05:31:28;10.02;;;6.10;;
34960;SDS011;30789;52.030;7.110;2023-03-29T05:33:54;9.63;;;6.35;;
34960;SDS011;30789;52.030;7.110;2023-03-29T05:36:21;11.15;;;5.63;;
34960;SDS011;30789;52.030;7.110;2023-03-29T05:38:48;9.18;;;5.88;;
34960;SDS011;30789;52.030;7.110;2023-03-29T05:41:15;9.95;;;5.82;;
34960;SDS011;30789;52.030;7.110;2023-03-29T05:43:42;8.07;;;5.13;;
34960;SDS011;30789;52.030;7.110;2023-03-29T05:46:10;9.32;;;5.88;;
34960;SDS011;30789;52.030;7.110;2023-03-29T05:48:36;10.30;;;6.53;;
34960;SDS011;30789;52.030;7.110;2023-03-29T05:51:03;12.60;;;5.85;;
34960;SDS011;30789;52.030;7.110;2023-03-29T05:53:29;8.38;;;5.25;;
34960;SDS011;30789;52.030;7.110;2023-03-29T05:55:56;10.02;;;6.00;;
34960;SDS011;30789;52.030;7.110;2023-03-29T05:58:22;11.95;;;5.78;;
34960;SDS011;30789;52.030;7.110;2023-03-29T06:00:50;9.80;;;5.78;;
34960;SDS011;30789;52.030;7.110;2023-03-29T06:03:18;12.80;;;6.05;;
34960;SDS011;30789;52.030;7.110;2023-03-29T06:05:45;9.75;;;6.00;;
34960;SDS011;30789;52.030;7.110;2023-03-29T06:08:12;9.45;;;7.13;;
34960;SDS011;30789;52.030;7.110;2023-03-29T06:10:38;12.70;;;6.55;;
34960;SDS011;30789;52.030;7.110;2023-03-29T06:13:05;10.30;;;7.05;;
34960;SDS011;30789;52.030;7.110;2023-03-29T06:15:32;11.80;;;6.60;;
34960;SDS011;30789;52.030;7.110;2023-03-29T06:17:58;12.98;;;7.35;;
34960;SDS011;30789;52.030;7.110;2023-03-29T06:20:26;12.18;;;7.85;;
34960;SDS011;30789;52.030;7.110;2023-03-29T06:22:53;12.93;;;7.22;;
34960;SDS011;30789;52.030;7.110;2023-03-29T06:25:19;12.48;;;7.18;;
34960;SDS011;30789;52.030;7.110;2023-03-29T06:27:45;14.63;;;7.72;;
34960;SDS011;30789;52.030;7.110;2023-03-29T06:30:12;14.95;;;7.88;;
34960;SDS011;30789;52.030;7.110;2023-03-29T06:32:39;13.43;;;7.68;;
34960;SDS011;30789;52.030;7.110;2023-03-29T06:35:06;11.80;;;7.90;;
34960;SDS011;30789;52.030;7.110;2023-03-29T06:37:34;16.13;;;8.65;;
34960;SDS011;30789;52.030;7.110;2023-03-29T06:40:00;15.48;;;8.43;;
34960;SDS011;30789;52.030;7.110;2023-03-29T06:42:31;11.88;;;7.70;;
34960;SDS011;30789;52.030;7.110;2023-03-29T06:44:57;12.85;;;7.78;;
34960;SDS011;30789;52.030;7.110;2023-03-29T06:47:24;15.50;;;8.52;;
34960;SDS011;30789;52.030;7.110;2023-03-29T06:49:54;13.07;;;8.57;;
34960;SDS011;30789;52.030;7.110;2023-03-29T06:52:21;14.95;;;7.75;;
34960;SDS011;30789;52.030;7.110;2023-03-29T06:54:48;13.57;;;8.20;;
34960;SDS011;30789;52.030;7.110;2023-03-29T06:57:15;15.15;;;8.77;;
34960;SDS011;30789;52.030;7.110;2023-03-29T06:59:41;15.23;;;8.48;;
34960;SDS011;30789;52.030;7.110;2023-03-29T07:02:07;13.55;;;8.85;;
34960;SDS011;30789;52.030;7.110;2023-03-29T07:04:36;11.73;;;7.55;;
34960;SDS011;30789;52.030;7.110;2023-03-29T07:07:02;14.30;;;7.95;;
34960;SDS011;30789;52.030;7.110;2023-03-29T07:09:31;15.93;;;8.15;;
34960;SDS011;30789;52.030;7.110;2023-03-29T07:12:01;10.82;;;7.75;;
34960;SDS011;30789;52.030;7.110;2023-03-29T07:14:27;11.77;;;7.82;;
34960;SDS011;30789;52.030;7.110;2023-03-29T07:16:55;11.35;;;7.70;;
34960;SDS011;30789;52.030;7.110;2023-03-29T07:19:22;14.20;;;7.85;;
34960;SDS011;30789;52.030;7.110;2023-03-29T07:21:51;14.13;;;7.80;;
34960;SDS011;30789;52.030;7.110;2023-03-29T07:24:18;16.88;;;8.40;;
34960;SDS011;30789;52.030;7.110;2023-03-29T07:26:45;11.68;;;7.47;;
34960;SDS011;30789;52.030;7.110;2023-03-29T07:29:13;17.02;;;7.72;;
34960;SDS011;30789;52.030;7.110;2023-03-29T07:31:40;11.77;;;6.93;;
34960;SDS011;30789;52.030;7.110;2023-03-29T07:34:08;13.18;;;7.85;;
34960;SDS011;30789;52.030;7.110;2023-03-29T07:36:35;11.35;;;7.25;;
34960;SDS011;30789;52.030;7.110;2023-03-29T07:39:02;11.98;;;7.53;;
34960;SDS011;30789;52.030;7.110;2023-03-29T07:41:28;12.18;;;6.88;;
34960;SDS011;30789;52.030;7.110;2023-03-29T07:43:55;12.15;;;7.03;;
34960;SDS011;30789;52.030;7.110;2023-03-29T07:46:23;11.18;;;6.45;;
34960;SDS011;30789;52.030;7.110;2023-03-29T07:48:50;10.70;;;5.80;;
34960;SDS011;30789;52.030;7.110;2023-03-29T07:51:16;8.15;;;5.65;;
34960;SDS011;30789;52.030;7.110;2023-03-29T07:53:42;10.15;;;5.63;;
34960;SDS011;30789;52.030;7.110;2023-03-29T07:56:08;9.35;;;4.95;;
34960;SDS011;30789;52.030;7.110;2023-03-29T07:58:35;9.88;;;5.45;;
34960;SDS011;30789;52.030;7.110;2023-03-29T08:01:01;9.38;;;5.45;;
34960;SDS011;30789;52.030;7.110;2023-03-29T08:03:29;10.15;;;5.18;;
34960;SDS011;30789;52.030;7.110;2023-03-29T08:05:55;8.90;;;5.05;;
34960;SDS011;30789;52.030;7.110;2023-03-29T08:08:21;9.32;;;5.03;;
34960;SDS011;30789;52.030;7.110;2023-03-29T08:10:48;7.60;;;4.85;;
34960;SDS011;30789;52.030;7.110;2023-03-29T08:13:14;8.23;;;4.82;;
34960;SDS011;30789;52.030;7.110;2023-03-29T08:15:40;8.77;;;5.07;;
34960;SDS011;30789;52.030;7.110;2023-03-29T08:18:10;6.28;;;3.72;;
34960;SDS011;30789;52.030;7.110;2023-03-29T08:20:37;11.65;;;4.95;;
34960;SDS011;30789;52.030;7.110;2023-03-29T08:23:04;7.47;;;4.10;;
34960;SDS011;30789;52.030;7.110;2023-03-29T08:25:30;7.07;;;4.30;;
34960;SDS011;30789;52.030;7.110;2023-03-29T08:27:56;7.75;;;4.30;;
34960;SDS011;30789;52.030;7.110;2023-03-29T08:30:22;6.38;;;3.83;;
34960;SDS011;30789;52.030;7.110;2023-03-29T08:32:49;6.85;;;4.43;;
34960;SDS011;30789;52.030;7.110;2023-03-29T08:35:17;7.10;;;3.90;;
34960;SDS011;30789;52.030;7.110;2023-03-29T08:37:44;8.65;;;4.30;;
34960;SDS011;30789;52.030;7.110;2023-03-29T08:40:11;9.13;;;5.10;;
34960;SDS011;30789;52.030;7.110;2023-03-29T08:42:53;9.57;;;5.03;;
34960;SDS011;30789;52.030;7.110;2023-03-29T08:45:24;8.05;;;4.80;;
34960;SDS011;30789;52.030;7.110;2023-03-29T08:47:55;5.05;;;4.03;;
34960;SDS011;30789;52.030;7.110;2023-03-29T08:50:26;7.38;;;3.78;;
34960;SDS011;30789;52.030;7.110;2023-03-29T08:52:57;8.95;;;4.55;;
34960;SDS011;30789;52.030;7.110;2023-03-29T08:55:26;7.07;;;4.18;;
34960;SDS011;30789;52.030;7.110;2023-03-29T08:57:53;8.68;;;4.45;;
34960;SDS011;30789;52.030;7.110;2023-03-29T09:00:25;6.93;;;5.07;;
34960;SDS011;30789;52.030;7.110;2023-03-29T09:02:54;9.75;;;5.68;;
34960;SDS011;30789;52.030;7.110;2023-03-29T09:05:25;8.23;;;4.60;;
34960;SDS011;30789;52.030;7.110;2023-03-29T09:07:52;6.03;;;4.32;;
34960;SDS011;30789;52.030;7.110;2023-03-29T09:10:20;7.97;;;4.70;;
34960;SDS011;30789;52.030;7.110;2023-03-29T09:12:53;10.10;;;5.13;;
34960;SDS011;30789;52.030;7.110;2023-03-29T09:15:25;7.45;;;3.72;;
34960;SDS011;30789;52.030;7.110;2023-03-29T09:17:55;7.80;;;4.45;;
34960;SDS011;30789;52.030;7.110;2023-03-29T09:20:29;11.95;;;4.47;;
34960;SDS011;30789;52.030;7.110;2023-03-29T09:23:01;7.22;;;4.20;;
34960;SDS011;30789;52.030;7.110;2023-03-29T09:25:34;6.68;;;4.45;;
34960;SDS011;30789;52.030;7.110;2023-03-29T09:28:09;7.35;;;5.20;;
34960;SDS011;30789;52.030;7.110;2023-03-29T09:30:39;17.00;;;10.13;;
34960;SDS011;30789;52.030;7.110;2023-03-29T09:33:08;17.23;;;10.43;;
34960;SDS011;30789;52.030;7.110;2023-03-29T09:38:03;10.35;;;5.15;;
34960;SDS011;30789;52.030;7.110;2023-03-29T09:40:33;8.68;;;5.85;;
34960;SDS011;30789;52.030;7.110;2023-03-29T09:43:02;9.45;;;5.88;;
34960;SDS011;30789;52.030;7.110;2023-03-29T09:45:29;10.43;;;5.60;;
34960;SDS011;30789;52.030;7.110;2023-03-29T09:47:56;16.52;;;6.78;;
34960;SDS011;30789;52.030;7.110;2023-03-29T09:50:24;11.40;;;7.55;;
34960;SDS011;30789;52.030;7.110;2023-03-29T09:52:52;13.10;;;6.72;;
34960;SDS011;30789;52.030;7.110;2023-03-29T09:55:19;11.15;;;6.72;;
34960;SDS011;30789;52.030;7.110;2023-03-29T09:57:47;18.25;;;9.88;;
34960;SDS011;30789;52.030;7.110;2023-03-29T10:00:14;38.17;;;20.10;;
34960;SDS011;30789;52.030;7.110;2023-03-29T10:02:41;48.08;;;23.60;;
34960;SDS011;30789;52.030;7.110;2023-03-29T10:05:14;39.63;;;18.52;;
34960;SDS011;30789;52.030;7.110;2023-03-29T10:07:43;17.27;;;10.35;;
34960;SDS011;30789;52.030;7.110;2023-03-29T10:10:17;14.13;;;8.52;;
34960;SDS011;30789;52.030;7.110;2023-03-29T10:12:46;11.13;;;6.10;;
34960;SDS011;30789;52.030;7.110;2023-03-29T10:15:15;10.55;;;6.72;;
34960;SDS011;30789;52.030;7.110;2023-03-29T10:17:42;10.70;;;6.88;;
34960;SDS011;30789;52.030;7.110;2023-03-29T10:20:12;10.88;;;6.60;;
34960;SDS011;30789;52.030;7.110;2023-03-29T10:22:44;11.00;;;6.07;;
34960;SDS011;30789;52.030;7.110;2023-03-29T10:25:12;12.07;;;6.93;;
34960;SDS011;30789;52.030;7.110;2023-03-29T10:27:40;10.90;;;6.60;;
34960;SDS011;30789;52.030;7.110;2023-03-29T10:30:07;10.38;;;6.65;;
34960;SDS011;30789;52.030;7.110;2023-03-29T10:32:37;10.18;;;7.65;;
34960;SDS011;30789;52.030;7.110;2023-03-29T10:35:05;13.13;;;7.97;;
34960;SDS011;30789;52.030;7.110;2023-03-29T10:37:33;17.52;;;8.02;;
34960;SDS011;30789;52.030;7.110;2023-03-29T10:39:59;16.40;;;8.18;;
34960;SDS011;30789;52.030;7.110;2023-03-29T10:42:26;11.80;;;7.65;;
34960;SDS011;30789;52.030;7.110;2023-03-29T10:44:54;10.55;;;7.72;;
34960;SDS011;30789;52.030;7.110;2023-03-29T10:47:20;13.30;;;8.35;;
34960;SDS011;30789;52.030;7.110;2023-03-29T10:49:50;10.25;;;7.97;;
34960;SDS011;30789;52.030;7.110;2023-03-29T10:52:17;16.50;;;9.32;;
34960;SDS011;30789;52.030;7.110;2023-03-29T10:54:43;14.63;;;9.52;;
34960;SDS011;30789;52.030;7.110;2023-03-29T10:57:11;23.40;;;14.40;;
34960;SDS011;30789;52.030;7.110;2023-03-29T10:59:41;27.38;;;15.88;;
34960;SDS011;30789;52.030;7.110;2023-03-29T11:02:26;16.45;;;10.80;;
34960;SDS011;30789;52.030;7.110;2023-03-29T11:05:02;13.02;;;8.85;;
34960;SDS011;30789;52.030;7.110;2023-03-29T11:07:30;15.75;;;9.73;;
34960;SDS011;30789;52.030;7.110;2023-03-29T11:09:59;14.90;;;8.98;;
34960;SDS011;30789;52.030;7.110;2023-03-29T11:14:59;10.23;;;7.43;;
34960;SDS011;30789;52.030;7.110;2023-03-29T11:17:32;13.77;;;8.93;;
34960;SDS011;30789;52.030;7.110;2023-03-29T11:20:07;10.18;;;8.02;;
34960;SDS011;30789;52.030;7.110;2023-03-29T11:22:40;11.73;;;8.20;;
34960;SDS011;30789;52.030;7.110;2023-03-29T11:25:18;12.90;;;8.73;;
34960;SDS011;30789;52.030;7.110;2023-03-29T11:27:48;12.77;;;9.02;;
34960;SDS011;30789;52.030;7.110;2023-03-29T11:30:16;10.63;;;7.57;;
34960;SDS011;30789;52.030;7.110;2023-03-29T11:32:47;9.88;;;7.53;;
34960;SDS011;30789;52.030;7.110;2023-03-29T11:35:23;11.57;;;8.75;;
34960;SDS011;30789;52.030;7.110;2023-03-29T11:37:53;11.27;;;7.95;;
34960;SDS011;30789;52.030;7.110;2023-03-29T11:40:27;10.55;;;8.30;;
34960;SDS011;30789;52.030;7.110;2023-03-29T11:42:56;12.40;;;8.63;;
34960;SDS011;30789;52.030;7.110;2023-03-29T11:45:25;14.55;;;8.85;;
34960;SDS011;30789;52.030;7.110;2023-03-29T11:47:52;12.10;;;8.77;;
34960;SDS011;30789;52.030;7.110;2023-03-29T11:50:20;18.63;;;10.05;;
34960;SDS011;30789;52.030;7.110;2023-03-29T11:52:50;9.73;;;8.43;;
34960;SDS011;30789;52.030;7.110;2023-03-29T11:55:18;13.77;;;9.27;;
34960;SDS011;30789;52.030;7.110;2023-03-29T11:57:49;15.05;;;9.95;;
34960;SDS011;30789;52.030;7.110;2023-03-29T12:00:16;16.80;;;9.95;;
34960;SDS011;30789;52.030;7.110;2023-03-29T12:02:46;11.63;;;8.90;;
34960;SDS011;30789;52.030;7.110;2023-03-29T12:05:17;14.48;;;8.90;;
34960;SDS011;30789;52.030;7.110;2023-03-29T12:07:46;11.35;;;8.65;;
34960;SDS011;30789;52.030;7.110;2023-03-29T12:10:16;14.85;;;9.07;;
34960;SDS011;30789;52.030;7.110;2023-03-29T12:12:44;11.88;;;9.13;;
34960;SDS011;30789;52.030;7.110;2023-03-29T12:15:14;11.00;;;8.85;;
34960;SDS011;30789;52.030;7.110;2023-03-29T12:17:45;10.88;;;8.40;;
34960;SDS011;30789;52.030;7.110;2023-03-29T12:20:14;11.10;;;9.23;;
34960;SDS011;30789;52.030;7.110;2023-03-29T12:22:43;11.68;;;8.40;;
34960;SDS011;30789;52.030;7.110;2023-03-29T12:25:11;15.75;;;9.55;;
34960;SDS011;30789;52.030;7.110;2023-03-29T12:27:42;10.77;;;8.32;;
34960;SDS011;30789;52.030;7.110;2023-03-29T12:30:31;16.67;;;8.95;;
34960;SDS011;30789;52.030;7.110;2023-03-29T12:35:48;13.55;;;8.60;;
34960;SDS011;30789;52.030;7.110;2023-03-29T12:38:20;12.73;;;7.95;;
34960;SDS011;30789;52.030;7.110;2023-03-29T12:40:47;13.75;;;8.40;;
34960;SDS011;30789;52.030;7.110;2023-03-29T12:45:46;11.05;;;6.80;;
34960;SDS011;30789;52.030;7.110;2023-03-29T12:48:14;10.57;;;7.32;;
34960;SDS011;30789;52.030;7.110;2023-03-29T12:50:43;9.50;;;7.03;;
34960;SDS011;30789;52.030;7.110;2023-03-29T12:53:14;9.05;;;7.25;;
34960;SDS011;30789;52.030;7.110;2023-03-29T12:55:47;11.25;;;6.90;;
34960;SDS011;30789;52.030;7.110;2023-03-29T12:58:22;8.35;;;7.05;;
34960;SDS011;30789;52.030;7.110;2023-03-29T13:00:56;9.23;;;7.07;;
34960;SDS011;30789;52.030;7.110;2023-03-29T13:03:26;9.02;;;7.97;;
34960;SDS011;30789;52.030;7.110;2023-03-29T13:06:00;9.85;;;7.80;;
34960;SDS011;30789;52.030;7.110;2023-03-29T13:08:31;14.65;;;9.02;;
34960;SDS011;30789;52.030;7.110;2023-03-29T13:10:58;12.88;;;9.05;;
34960;SDS011;30789;52.030;7.110;2023-03-29T13:13:25;12.40;;;8.90;;
34960;SDS011;30789;52.030;7.110;2023-03-29T13:15:52;13.63;;;9.35;;
34960;SDS011;30789;52.030;7.110;2023-03-29T13:18:24;12.77;;;8.80;;
34960;SDS011;30789;52.030;7.110;2023-03-29T13:20:55;14.05;;;9.65;;
34960;SDS011;30789;52.030;7.110;2023-03-29T13:23:29;15.00;;;9.60;;
34960;SDS011;30789;52.030;7.110;2023-03-29T13:26:16;10.88;;;9.30;;
34960;SDS011;30789;52.030;7.110;2023-03-29T13:28:53;13.95;;;8.20;;
34960;SDS011;30789;52.030;7.110;2023-03-29T13:31:25;15.60;;;10.07;;
34960;SDS011;30789;52.030;7.110;2023-03-29T13:33:57;14.38;;;8.80;;
34960;SDS011;30789;52.030;7.110;2023-03-29T13:36:32;13.25;;;9.15;;
34960;SDS011;30789;52.030;7.110;2023-03-29T13:39:01;13.45;;;8.43;;
34960;SDS011;30789;52.030;7.110;2023-03-29T13:41:31;10.95;;;8.32;;
34960;SDS011;30789;52.030;7.110;2023-03-29T13:43:58;15.18;;;8.13;;
34960;SDS011;30789;52.030;7.110;2023-03-29T13:46:34;11.95;;;8.10;;
34960;SDS011;30789;52.030;7.110;2023-03-29T13:49:04;8.15;;;5.85;;
34960;SDS011;30789;52.030;7.110;2023-03-29T13:51:36;11.68;;;6.68;;
34960;SDS011;30789;52.030;7.110;2023-03-29T13:54:05;12.55;;;6.07;;
34960;SDS011;30789;52.030;7.110;2023-03-29T13:56:33;7.82;;;6.35;;
34960;SDS011;30789;52.030;7.110;2023-03-29T13:59:03;10.10;;;5.93;;
34960;SDS011;30789;52.030;7.110;2023-03-29T14:01:31;7.45;;;5.38;;
34960;SDS011;30789;52.030;7.110;2023-03-29T14:04:01;8.33;;;5.90;;
34960;SDS011;30789;52.030;7.110;2023-03-29T14:06:31;8.05;;;5.18;;
34960;SDS011;30789;52.030;7.110;2023-03-29T14:08:59;11.95;;;7.13;;
34960;SDS011;30789;52.030;7.110;2023-03-29T14:11:28;12.50;;;6.28;;
34960;SDS011;30789;52.030;7.110;2023-03-29T14:13:55;8.63;;;6.10;;
34960;SDS011;30789;52.030;7.110;2023-03-29T14:16:24;11.80;;;6.72;;
34960;SDS011;30789;52.030;7.110;2023-03-29T14:18:52;15.35;;;7.15;;
34960;SDS011;30789;52.030;7.110;2023-03-29T14:21:19;9.35;;;6.82;;
34960;SDS011;30789;52.030;7.110;2023-03-29T14:23:52;12.05;;;5.55;;
34960;SDS011;30789;52.030;7.110;2023-03-29T14:26:20;7.95;;;5.25;;
34960;SDS011;30789;52.030;7.110;2023-03-29T14:28:47;10.32;;;5.57;;
34960;SDS011;30789;52.030;7.110;2023-03-29T14:31:17;7.20;;;5.43;;
34960;SDS011;30789;52.030;7.110;2023-03-29T14:33:44;9.00;;;5.72;;
34960;SDS011;30789;52.030;7.110;2023-03-29T14:36:11;8.30;;;5.80;;
34960;SDS011;30789;52.030;7.110;2023-03-29T14:38:38;8.35;;;5.68;;
34960;SDS011;30789;52.030;7.110;2023-03-29T14:41:06;8.30;;;5.97;;
34960;SDS011;30789;52.030;7.110;2023-03-29T14:43:33;8.00;;;4.93;;
34960;SDS011;30789;52.030;7.110;2023-03-29T14:46:01;6.22;;;5.32;;
34960;SDS011;30789;52.030;7.110;2023-03-29T14:48:27;6.32;;;4.88;;
34960;SDS011;30789;52.030;7.110;2023-03-29T14:50:54;7.35;;;5.22;;
34960;SDS011;30789;52.030;7.110;2023-03-29T14:53:21;6.78;;;4.90;;
34960;SDS011;30789;52.030;7.110;2023-03-29T14:55:48;8.05;;;5.00;;
34960;SDS011;30789;52.030;7.110;2023-03-29T14:58:20;6.95;;;5.03;;
34960;SDS011;30789;52.030;7.110;2023-03-29T15:00:48;10.73;;;5.30;;